CheckWX is a tool to help pilots better visualize weather data.  It is not intended as a substitute for an official pre-flight weather briefing.

06:11:13 UTC

KIXA METAR
Halifax-Northampton Regional Airport
Roanoke Rapids, North Carolina, USA
Current

11 mins ago

KIXA 230600Z AUTO 00000KT 10SM CLR 08/08 A3012 RMK AO2
Observed
Apr-23 @ 06:00 UTC
Visibility
10 SM
Flight Rules
VFR
Cloud Levels
  • Clear skies
Temperature
C / 46°F
Dewpoint
C / 46°F
Humidity
100%
Altimeter
30.12" Hg
Pressure
1020.02 hPa
Previous

31 mins ago

KIXA 230540Z AUTO 00000KT 10SM CLR 08/08 A3012 RMK AO2
Observed
Apr-23 @ 05:40 UTC
Visibility
10 SM
Flight Rules
VFR
Cloud Levels
  • Clear skies
Temperature
C / 46°F
Dewpoint
C / 46°F
Humidity
100%
Altimeter
30.12" Hg
Pressure
1020.02 hPa
Previous

51 mins ago

KIXA 230520Z AUTO 00000KT 10SM CLR 08/08 A3012 RMK AO2
Observed
Apr-23 @ 05:20 UTC
Visibility
10 SM
Flight Rules
VFR
Cloud Levels
  • Clear skies
Temperature
C / 46°F
Dewpoint
C / 46°F
Humidity
100%
Altimeter
30.12" Hg
Pressure
1020.02 hPa